Monday, June 25, 2018, 12:19 AM EDT
Back to Local

KBGM, Binghamton Regional Airport

Location: Johnson City, NY, United States Lat: 42.2
Local Time: 12:19 AM EDT ( 4:19 GMT) Lon: -75.983
Time Zone: US/Eastern Elev: 1637 ft

Show me the last for .
Show Decoded

2018-06-25 00:06 METAR KBGM 250406Z 33007KT 10SM SCT009 OVC080 15/14 A2997 RMK AO2 T01500144 =
2018-06-24 23:53 METAR KBGM 250353Z 34009KT 10SM BKN009 BKN014 OVC055 16/14 A2996 RMK AO2 SLP138
                 T01560144 =
2018-06-24 23:44 METAR KBGM 250344Z 34010KT 10SM SCT007 BKN013 OVC055 16/14 A2996 RMK AO2
                 T01560144 =
2018-06-24 22:53 METAR KBGM 250253Z 33007KT 10SM OVC005 16/15 A2994 RMK AO2 CIG 003V008 SLP131
                 60005 T01560150 53018 =
2018-06-24 22:01 METAR KBGM 250201Z 34010KT 10SM OVC005 16/16 A2992 RMK AO2 CIG 002V010 T01610156
                 =
2018-06-24 21:53 METAR KBGM 250153Z 34010KT 2SM OVC005 16/16 A2992 RMK AO2 SFC VIS 10 RAE50
                 SLP126 P0002 T01610156 =
2018-06-24 20:53 METAR KBGM 250053Z 34011KT 2SM -RA BR OVC003 17/16 A2989 RMK AO2 SFC VIS 4
                 RAE08B33 CIG 001V006 SLP114 P0003 T01670161 =
2018-06-24 20:51 METAR KBGM 250051Z 34012KT 2SM RA BR OVC003 17/16 A2988 RMK AO2 SFC VIS 4
                 RAE08B33 CIG 001V006 P0003 =
2018-06-24 20:44 METAR KBGM 250044Z 33011KT 1SM -RA BR OVC003 18/17 A2988 RMK AO2 SFC VIS 5
                 RAE08B33 CIG 001V005 P0001 T01780172 =
2018-06-24 20:07 METAR KBGM 250007Z 29003KT 10SM -RA BKN004 BKN039 OVC050 18/18 A2986 RMK AO2 CIG
                 002V009 P0000 T01830178 =
2018-06-24 19:53 METAR KBGM 242353Z 27005KT 7SM -RA BKN006 BKN016 OVC049 18/18 A2987 RMK AO2 CIG
                 002V009 SLP107 P0003 60040 T01780178 10217 20178 53004 =
2018-06-24 19:29 METAR KBGM 242329Z 25005KT 9SM -RA BKN008 BKN020 OVC100 18/18 A2986 RMK AO2 CIG
                 003V009 P0003 T01830178 =
2018-06-24 19:17 METAR KBGM 242317Z 23003KT 5SM -RA BR SCT006 BKN025 OVC100 18/18 A2985 RMK AO2
                 P0003 T01830178 =
2018-06-24 18:53 METAR KBGM 242253Z 31004KT 3SM RA BR FEW060 OVC095 18/18 A2984 RMK AO2 SLP098
                 P0017 T01830178 =
2018-06-24 18:48 METAR KBGM 242248Z 30005KT 3SM RA BR FEW060 BKN085 OVC100 18/18 A2984 RMK AO2
                 P0015 =
2018-06-24 18:04 METAR KBGM 242204Z AUTO 26007KT 2 1/2SM RA BR SCT060 OVC080 19/18 A2986 RMK AO2
                 LTG DSNT SE P0003 T01940183 =
2018-06-24 17:53 METAR KBGM 242153Z AUTO 27007KT 5SM RA BR FEW017 BKN080 OVC100 19/18 A2985 RMK
                 AO2 LTG DSNT SE RAE03B36 SLP102 P0001 T01940183 =
2018-06-24 16:53 METAR KBGM 242053Z AUTO 27005KT 9SM -RA SCT013 BKN070 OVC110 21/18 A2984 RMK AO2
                 LTG DSNT S RAB48 SLP095 P0000 60019 T02060183 53001 =
2018-06-24 15:53 METAR KBGM 241953Z AUTO 25005KT 10SM BKN085 OVC100 21/18 A2982 RMK AO2 RAE39
                 SLP089 P0012 T02110183 =
2018-06-24 15:22 METAR KBGM 241922Z AUTO 28004KT 10SM -RA FEW008 BKN060 OVC100 20/19 A2983 RMK
                 AO2 LTG DSNT W P0012 T02000189 =
2018-06-24 15:15 METAR KBGM 241915Z AUTO 28005KT 2SM -RA BR FEW008 BKN037 OVC095 19/18 A2983 RMK
                 AO2 P0012 T01940183 =
2018-06-24 15:06 METAR KBGM 241906Z 28006KT 3/4SM +RA BR SCT008 BKN037 OVC070 19/19 A2984 RMK AO2
                 LTG DSNT SE P0004 T01940189 =
2018-06-24 15:03 METAR KBGM 241903Z 28006KT 1 1/2SM RA BR SCT010 BKN055 OVC100 19/19 A2984 RMK
                 AO2 LTG DSNT SE P0000 T01940189 =
2018-06-24 14:57 METAR KBGM 241857Z 24004KT 3SM -RA BR FEW020 BKN055 OVC100 20/19 A2984 RMK AO2
                 LTG DSNT SE P0000 T02000189 =
2018-06-24 14:53 METAR KBGM 241853Z 23004KT 1 3/4SM -RA BR SCT047 BKN060 OVC100 20/19 A2984 RMK
                 AO2 LTG DSNT SE RAE09B28 SLP097 P0007 T02000189 =
2018-06-24 14:48 METAR KBGM 241848Z 25006KT 1 3/4SM +RA BR FEW037 BKN070 OVC100 20/19 A2985 RMK
                 AO2 LTG DSNT SE RAE09B28 P0002 =
2018-06-24 14:29 METAR KBGM 241829Z 29004KT 10SM -RA FEW070 OVC100 20/18 A2984 RMK AO2 LTG DSNT W
                 RAE09B28 P0001 T02000183 =
2018-06-24 14:10 METAR KBGM 241810Z 31005KT 10SM VCTS FEW017 SCT029 OVC100 20/18 A2984 RMK AO2
                 LTG DSNT S AND SW RAE09 P0001 T02000183 =
2018-06-24 13:53 METAR KBGM 241753Z 31005KT 7SM -RA SCT018 BKN030 OVC100 21/18 A2983 RMK AO2 LTG
                 DSNT SW AND W RAB27 SLP094 P0001 60003 T02060183 10228 20178 55002 =
2018-06-24 12:53 METAR KBGM 241653Z 27008KT 10SM SCT022 BKN038 OVC047 22/17 A2984 RMK AO2 SLP096
                 T02220167 =
2018-06-24 12:39 METAR KBGM 241639Z 28005KT 10SM SCT022 BKN035 OVC046 22/17 A2984 RMK AO2
                 T02220167 =
2018-06-24 11:53 METAR KBGM 241553Z VRB03KT 10SM SCT018 BKN024 OVC050 22/17 A2984 RMK AO2 SLP097
                 T02170172 =
2018-06-24 11:21 METAR KBGM 241521Z 27005KT 10SM SCT013 BKN020 BKN038 21/18 A2985 RMK AO2
                 T02110178 =
2018-06-24 10:53 METAR KBGM 241453Z 24005KT 10SM FEW008 SCT013 OVC038 21/18 A2985 RMK AO2 SLP100
                 60002 T02060178 53002 =
2018-06-24 10:49 METAR KBGM 241449Z 26007KT 10SM FEW008 SCT013 OVC038 21/18 A2985 RMK AO2 =
2018-06-24 10:34 METAR KBGM 241434Z 27007KT 10SM FEW008 OVC012 20/18 A2985 RMK AO2 T02000178 =
2018-06-24 10:05 METAR KBGM 241405Z 28005KT 10SM OVC005 19/18 A2984 RMK AO2 CIG 003V009 T01940178
                 =
2018-06-24 09:53 METAR KBGM 241353Z 28005KT 10SM OVC004 19/18 A2984 RMK AO2 RAB00E36 CIG 003V008
                 SLP096 P0002 T01890178 =
2018-06-24 09:37 METAR KBGM 241337Z 28004KT 9SM OVC005 18/18 A2984 RMK AO2 RAB00E36 P0002
                 T01830178 =
2018-06-24 09:28 METAR KBGM 241328Z 28006KT 2 1/2SM -RA BR OVC005 18/17 A2984 RMK AO2 SFC VIS 3
                 RAB00 P0002 T01830172 =
2018-06-24 08:53 METAR KBGM 241253Z 26008KT 10SM OVC005 18/17 A2984 RMK AO2 CIG 004V009 SLP099
                 T01830172 =
2018-06-24 08:18 METAR KBGM 241218Z 26006KT 8SM OVC004 18/17 A2984 RMK AO2 T01830172 =
2018-06-24 07:53 METAR KBGM 241153Z 24006KT 7SM BKN005 OVC055 18/17 A2983 RMK AO2 SLP095 70049
                 T01830172 10183 20167 53005 =
2018-06-24 07:44 METAR KBGM 241144Z 25004KT 5SM BR BKN005 OVC055 18/17 A2983 RMK AO2 T01780172 =
2018-06-24 07:05 METAR KBGM 241105Z 25005KT 7SM FEW007 SCT022 OVC045 18/17 A2983 RMK AO2
                 T01780172 =
2018-06-24 06:53 METAR KBGM 241053Z 23005KT 8SM SCT007 BKN023 OVC043 18/17 A2982 RMK AO2 SLP091
                 T01780172 =
2018-06-24 06:49 METAR KBGM 241049Z 23005KT 8SM SCT007 BKN017 OVC023 18/17 A2982 RMK AO2 =
2018-06-24 06:42 METAR KBGM 241042Z 23005KT 8SM BKN007 OVC015 18/17 A2982 RMK AO2 T01780172 =
2018-06-24 06:23 METAR KBGM 241023Z 22005KT 7SM SCT009 OVC014 18/17 A2982 RMK AO2 T01780167 =
2018-06-24 05:53 METAR KBGM 240953Z AUTO 21005KT 6SM BR BKN009 OVC015 17/17 A2982 RMK AO2 CIG
                 007V013 SLP089 T01720167 =
2018-06-24 05:16 METAR KBGM 240916Z AUTO 21003KT 8SM BKN009 17/17 A2980 RMK AO2 T01720167 =
2018-06-24 05:01 METAR KBGM 240901Z AUTO 23004KT 8SM FEW008 SCT024 17/16 A2980 RMK AO2 T01720161
                 =
2018-06-24 04:53 METAR KBGM 240853Z AUTO 24003KT 9SM SCT007 BKN024 17/16 A2980 RMK AO2 SLP082
                 T01720161 58002 =
2018-06-24 04:37 METAR KBGM 240837Z AUTO 22003KT 9SM SCT008 BKN023 OVC060 17/17 A2980 RMK AO2
                 T01720167 =
2018-06-24 04:17 METAR KBGM 240817Z AUTO 00000KT 9SM SCT008 OVC065 17/17 A2980 RMK AO2 T01720167
                 =
2018-06-24 03:53 METAR KBGM 240753Z AUTO 21004KT 10SM OVC008 17/17 A2981 RMK AO2 SLP086 T01720167
                 =
2018-06-24 02:53 METAR KBGM 240653Z AUTO 21005KT 10SM OVC009 18/17 A2981 RMK AO2 SLP087 T01780167
                 =
2018-06-24 02:02 METAR KBGM 240602Z AUTO 21006KT 10SM OVC009 18/17 A2980 RMK AO2 T01780167 =
2018-06-24 01:53 METAR KBGM 240553Z AUTO 21006KT 10SM OVC010 18/17 A2980 RMK AO2 SLP086 T01780167
                 10194 20172 58002 =
2018-06-24 01:11 METAR KBGM 240511Z AUTO 21006KT 10SM BKN012 17/16 A2980 RMK AO2 T01720161 =
2018-06-24 00:53 METAR KBGM 240453Z AUTO 20005KT 10SM CLR 17/16 A2981 RMK AO2 SLP089 T01720161
                 402060117 =

Support USWX by starting your Amazon purchase here.